| time (UTC) | temp C | wind direction | speed KPH | gust KPH | rain 1hr cm | rain 24hr cm | rain mn cm | humidity % | barometer mb |
| 20260506014220 | 12 | 88 | 6.4 | 9.7 | 0.41 | 7.39 | 0.46 | 93 | 1010.6 |
| 20260506013658 | 12 | 119 | 4.8 | 6.4 | 0.41 | 7.39 | 0.46 | 93 | 1010.6 |
| 20260506013225 | 12 | 104 | 3.2 | 8.0 | 0.41 | 7.39 | 0.46 | 93 | 1010.6 |
| 20260506012722 | 12 | 104 | 1.6 | 11.3 | 0.51 | 7.39 | 0.46 | 93 | 1010.7 |
| 20260506012200 | 12 | 98 | 6.4 | 11.3 | 0.51 | 7.39 | 0.46 | 93 | 1010.6 |
| 20260506011700 | 12 | 101 | 4.8 | 9.7 | 0.51 | 7.39 | 0.46 | 93 | 1010.7 |
| 20260506011222 | 12 | 80 | 3.2 | 12.9 | 0.51 | 7.39 | 0.46 | 93 | 1010.8 |
| 20260506010654 | 12 | 81 | 3.2 | 12.9 | 0.51 | 7.39 | 0.46 | 93 | 1010.9 |
| 20260506010219 | 12 | 87 | 8.0 | 14.5 | 0.30 | 7.19 | 0.41 | 93 | 1010.8 |
| 20260506005721 | 12 | 81 | 8.0 | 14.5 | 0.10 | 7.01 | 0.36 | 93 | 1011.0 |
| 20260506005153 | 12 | 80 | 6.4 | 11.3 | 0.10 | 7.01 | 0.36 | 93 | 1011.2 |
| 20260506004726 | 12 | 80 | 8.0 | 11.3 | 0.10 | 7.01 | 0.36 | 93 | 1011.2 |
| 20260506004203 | 12 | 117 | 4.8 | 6.4 | 0.10 | 7.01 | 0.36 | 93 | 1011.2 |
| 20260506003712 | 12 | 83 | 4.8 | 8.0 | 0.10 | 7.01 | 0.36 | 93 | 1011.2 |
| 20260506003158 | 12 | 123 | 4.8 | 11.3 | 0.10 | 7.01 | 0.36 | 93 | 1011.3 |
| 20260506002658 | 12 | 78 | 6.4 | 11.3 | 0.00 | 6.91 | 0.33 | 93 | 1011.2 |
| 20260506002150 | 12 | 85 | 4.8 | 11.3 | 0.00 | 6.91 | 0.33 | 93 | 1011.3 |
| 20260506001716 | 12 | 98 | 6.4 | 0.0 | 0.00 | 0.00 | 0.33 | 93 | 1011.7 |
| 20260506001153 | 12 | 92 | 8.0 | 14.5 | 0.00 | 6.91 | 0.33 | 93 | 1011.3 |
| 20260506000656 | 12 | 85 | 4.8 | 12.9 | 0.00 | 6.91 | 0.33 | 93 | 1011.4 |
| 20260506000200 | 12 | 92 | 4.8 | 8.0 | 0.30 | 6.91 | 0.33 | 93 | 1011.5 |
| 20260505235657 | 12 | 114 | 1.6 | 8.0 | 0.41 | 6.91 | 0.33 | 93 | 1011.5 |
| 20260505235200 | 12 | 90 | 3.2 | 9.7 | 0.41 | 6.91 | 0.33 | 93 | 1011.7 |
| 20260505234715 | 12 | 86 | 3.2 | 9.7 | 0.41 | 6.91 | 0.33 | 93 | 1011.7 |
| 20260505234154 | 12 | 74 | 0.0 | 4.8 | 0.51 | 6.91 | 0.33 | 93 | 1011.6 |
| 20260505233649 | 12 | 74 | 1.6 | 4.8 | 0.61 | 6.91 | 0.33 | 93 | 1011.6 |
| 20260505233155 | 12 | 76 | 0.0 | 0.0 | 0.71 | 6.91 | 0.33 | 93 | 1011.6 |
| 20260505232658 | 12 | 76 | 0.0 | 0.0 | 0.71 | 6.91 | 0.33 | 93 | 1011.7 |
| 20260505232157 | 12 | 77 | 0.0 | 0.0 | 0.71 | 6.91 | 0.33 | 93 | 1011.8 |
| 20260505231655 | 12 | 77 | 0.0 | 0.0 | 0.79 | 6.91 | 0.33 | 93 | 1011.9 |
| 20260505231152 | 12 | 76 | 0.0 | 0.0 | 0.79 | 6.91 | 0.33 | 93 | 1011.9 |
| 20260505230720 | 12 | 76 | 0.0 | 3.2 | 0.99 | 6.91 | 0.33 | 93 | 1011.8 |
| 20260505230152 | 12 | 77 | 0.0 | 11.3 | 0.99 | 6.60 | 0.25 | 93 | 1011.9 |
| 20260505225650 | 12 | 76 | 1.6 | 11.3 | 0.99 | 6.50 | 0.23 | 93 | 1011.9 |
| 20260505225150 | 12 | 92 | 3.2 | 11.3 | 1.19 | 6.50 | 0.23 | 93 | 1011.8 |
| 20260505224703 | 12 | 73 | 3.2 | 11.3 | 1.40 | 6.50 | 0.23 | 93 | 1011.8 |
| 20260505224203 | 12 | 77 | 3.2 | 8.0 | 1.40 | 6.40 | 0.20 | 93 | 1011.9 |
| 20260505223703 | 12 | 81 | 0.0 | 0.0 | 1.40 | 6.30 | 0.18 | 93 | 1011.9 |
| 20260505223227 | 12 | 81 | 0.0 | 3.2 | 1.60 | 6.20 | 0.15 | 93 | 1011.9 |
| 20260505222702 | 12 | 81 | 0.0 | 3.2 | 1.91 | 6.20 | 0.15 | 93 | 1011.9 |
| 20260505222220 | 12 | 80 | 0.0 | 1.6 | 2.01 | 6.20 | 0.15 | 93 | 1011.9 |
| 20260505221658 | 12 | 80 | 0.0 | 6.4 | 2.01 | 6.10 | 0.13 | 93 | 1012.0 |
| 20260505221157 | 12 | 80 | 1.6 | 6.4 | 2.11 | 6.10 | 0.13 | 93 | 1011.8 |
| 20260505220652 | 12 | 75 | 0.0 | 0.0 | 1.80 | 5.79 | 0.05 | 93 | 1012.0 |
| 20260505220158 | 12 | 75 | 0.0 | 0.0 | 1.80 | 5.59 | 0.00 | 92 | 1012.1 |
| 20260505215655 | 12 | 75 | 0.0 | 0.0 | 1.70 | 5.51 | 1.40 | 93 | 1012.0 |
| 20260505215152 | 12 | 78 | 0.0 | 0.0 | 1.40 | 5.21 | 1.35 | 92 | 1012.2 |
| 20260505214705 | 12 | 78 | 0.0 | 0.0 | 1.30 | 5.11 | 1.30 | 92 | 1012.3 |
| 20260505214147 | 12 | 78 | 0.0 | 0.0 | 1.19 | 5.00 | 1.27 | 92 | 1012.3 |
| 20260505213645 | 12 | 78 | 0.0 | 0.0 | 1.09 | 4.90 | 1.24 | 92 | 1012.4 |
| 20260505213151 | 12 | 79 | 0.0 | 8.0 | 0.71 | 4.50 | 1.14 | 92 | 1012.5 |
| 20260505212704 | 12 | 81 | 0.0 | 8.0 | 0.41 | 4.19 | 1.07 | 92 | 1012.5 |
| 20260505212226 | 12 | 82 | 1.6 | 6.4 | 0.41 | 4.19 | 1.07 | 92 | 1012.5 |
| 20260505211703 | 12 | 71 | 1.6 | 6.4 | 0.30 | 4.09 | 1.04 | 92 | 1012.6 |
| 20260505211156 | 12 | 71 | 0.0 | 6.4 | 0.20 | 3.99 | 1.02 | 92 | 1012.6 |
| 20260505210650 | 12 | 71 | 0.0 | 0.0 | 0.20 | 3.99 | 1.02 | 92 | 1012.6 |
| 20260505210155 | 12 | 71 | 0.0 | 0.0 | 0.00 | 3.81 | 0.97 | 92 | 1012.7 |
| 20260505205659 | 12 | 71 | 0.0 | 0.0 | 0.00 | 3.81 | 0.97 | 92 | 1012.8 |
| 20260505205219 | 12 | 71 | 0.0 | 0.0 | 0.00 | 3.81 | 0.97 | 92 | 1012.7 |
| 20260505204701 | 12 | 53 | 0.0 | 0.0 | 0.00 | 3.81 | 0.97 | 92 | 1012.8 |
| 20260505204217 | 12 | 53 | 0.0 | 0.0 | 0.00 | 3.81 | 0.97 | 92 | 1012.8 |
| 20260505203656 | 12 | 53 | 0.0 | 0.0 | 0.00 | 3.81 | 0.97 | 92 | 1012.8 |
| 20260505203204 | 12 | 53 | 0.0 | 0.0 | 0.00 | 3.81 | 0.97 | 92 | 1012.8 |
| 20260505202700 | 12 | 53 | 0.0 | 0.0 | 0.10 | 3.81 | 0.97 | 92 | 1012.9 |
| 20260505202145 | 12 | 53 | 0.0 | 0.0 | 0.10 | 3.81 | 0.97 | 92 | 1012.8 |
| 20260505201658 | 12 | 53 | 0.0 | 0.0 | 0.10 | 3.81 | 0.97 | 92 | 1012.7 |
| 20260505201159 | 12 | 53 | 0.0 | 0.0 | 0.10 | 3.81 | 0.97 | 92 | 1012.7 |
| 20260505200659 | 12 | 53 | 0.0 | 0.0 | 0.10 | 3.81 | 0.97 | 92 | 1012.6 |
| 20260505200226 | 12 | 53 | 0.0 | 0.0 | 0.10 | 3.81 | 0.97 | 92 | 1012.6 |
| 20260505195705 | 12 | 53 | 0.0 | 0.0 | 0.10 | 3.81 | 0.97 | 92 | 1012.6 |
| 20260505195157 | 12 | 53 | 0.0 | 0.0 | 0.10 | 3.81 | 0.97 | 92 | 1012.6 |
| 20260505194712 | 12 | 53 | 0.0 | 0.0 | 0.10 | 3.81 | 0.97 | 92 | 1012.6 |
| 20260505194209 | 12 | 53 | 0.0 | 4.8 | 0.10 | 3.81 | 0.97 | 92 | 1012.5 |
| 20260505193650 | 12 | 57 | 0.0 | 0.0 | 0.10 | 3.81 | 0.97 | 92 | 1012.5 |
| 20260505193146 | 12 | 57 | 0.0 | 0.0 | 0.10 | 3.81 | 0.97 | 92 | 1012.6 |
| 20260505192706 | 12 | 59 | 0.0 | 1.6 | 0.00 | 3.71 | 0.94 | 92 | 1012.5 |
| 20260505192205 | 12 | 53 | 0.0 | 0.0 | 0.00 | 3.71 | 0.94 | 92 | 1012.5 |
| 20260505191700 | 12 | 53 | 0.0 | 0.0 | 0.00 | 3.71 | 0.94 | 92 | 1012.5 |
| 20260505191150 | 12 | 53 | 0.0 | 0.0 | 0.00 | 3.71 | 0.94 | 92 | 1012.4 |
| 20260505190655 | 12 | 53 | 0.0 | 8.0 | 0.00 | 3.71 | 0.94 | 92 | 1012.2 |
| 20260505190217 | 12 | 53 | 1.6 | 8.0 | 0.00 | 3.71 | 0.94 | 92 | 1012.0 |
| 20260505185648 | 12 | 63 | 3.2 | 11.3 | 0.00 | 3.71 | 0.94 | 92 | 1012.0 |
| 20260505185151 | 12 | 86 | 4.8 | 11.3 | 0.00 | 3.71 | 0.94 | 92 | 1012.2 |
| 20260505184704 | 12 | 85 | 4.8 | 11.3 | 0.00 | 3.71 | 0.94 | 93 | 1012.3 |
| 20260505184154 | 12 | 69 | 0.0 | 11.3 | 0.00 | 3.71 | 0.94 | 93 | 1012.3 |
| 20260505183651 | 12 | 68 | 0.0 | 8.0 | 0.00 | 3.71 | 0.94 | 93 | 1012.4 |
| 20260505183218 | 12 | 66 | 3.2 | 8.0 | 0.00 | 3.71 | 0.94 | 93 | 1012.4 |
| 20260505182653 | 12 | 88 | 1.6 | 11.3 | 0.00 | 3.71 | 0.94 | 93 | 1012.2 |
| 20260505182206 | 12 | 49 | 4.8 | 12.9 | 0.00 | 3.71 | 0.94 | 93 | 1012.1 |
| 20260505181728 | 12 | 55 | 3.2 | 8.0 | 0.00 | 3.71 | 0.94 | 93 | 1012.1 |
| 20260505181226 | 12 | 54 | 3.2 | 8.0 | 0.00 | 3.71 | 0.94 | 93 | 1012.2 |
| 20260505180656 | 12 | 81 | 1.6 | 8.0 | 0.00 | 3.71 | 0.94 | 93 | 1012.2 |
| 20260505180200 | 12 | 84 | 1.6 | 8.0 | 0.00 | 3.71 | 0.94 | 93 | 1012.3 |
| 20260505175657 | 12 | 88 | 1.6 | 9.7 | 0.00 | 3.71 | 0.94 | 93 | 1012.2 |
| 20260505175158 | 12 | 88 | 1.6 | 8.0 | 0.00 | 3.71 | 0.94 | 93 | 1012.1 |
| 20260505174712 | 12 | 95 | 0.0 | 0.0 | 0.00 | 3.71 | 0.94 | 93 | 1012.2 |
| 20260505174221 | 12 | 96 | 0.0 | 4.8 | 0.00 | 3.71 | 0.94 | 93 | 1012.3 |
| 20260505173652 | 12 | 97 | 0.0 | 8.0 | 0.00 | 3.71 | 0.94 | 93 | 1012.3 |
| 20260505173158 | 12 | 98 | 0.0 | 8.0 | 0.00 | 3.71 | 0.94 | 93 | 1012.3 |
| 20260505172656 | 12 | 98 | 3.2 | 8.0 | 0.00 | 3.71 | 0.94 | 93 | 1012.3 |
| 20260505172155 | 12 | 89 | 0.0 | 0.0 | 0.00 | 3.71 | 0.94 | 93 | 1012.3 |
| 20260505171649 | 12 | 88 | 0.0 | 3.2 | 0.00 | 3.71 | 0.94 | 93 | 1012.3 |
| 20260505171201 | 12 | 89 | 1.6 | 3.2 | 0.00 | 3.71 | 0.94 | 93 | 1012.2 |
| 20260505170657 | 12 | 95 | 0.0 | 6.4 | 0.00 | 3.71 | 0.94 | 94 | 1012.2 |
| 20260505170202 | 12 | 82 | 1.6 | 9.7 | 0.00 | 3.71 | 0.94 | 94 | 1012.1 |
| 20260505165700 | 12 | 84 | 3.2 | 9.7 | 0.00 | 3.71 | 0.94 | 94 | 1012.2 |
| 20260505165212 | 12 | 84 | 3.2 | 9.7 | 0.00 | 3.71 | 0.94 | 94 | 1012.3 |
| 20260505164644 | 12 | 87 | 0.0 | 9.7 | 0.00 | 3.71 | 0.94 | 94 | 1012.3 |
| 20260505164204 | 12 | 84 | 3.2 | 9.7 | 0.00 | 3.71 | 0.94 | 94 | 1012.3 |
| 20260505163713 | 12 | 88 | 1.6 | 8.0 | 0.00 | 3.71 | 0.94 | 94 | 1012.3 |
| 20260505163154 | 12 | 88 | 0.0 | 9.7 | 0.00 | 3.71 | 0.94 | 94 | 1012.3 |
| 20260505162704 | 12 | 93 | 4.8 | 9.7 | 0.00 | 3.71 | 0.94 | 94 | 1012.4 |
| 20260505162202 | 12 | 92 | 3.2 | 9.7 | 0.00 | 3.71 | 0.94 | 94 | 1012.4 |
| 20260505161654 | 11 | 87 | 6.4 | 11.3 | 0.00 | 3.71 | 0.94 | 93 | 1012.5 |
| 20260505161208 | 11 | 95 | 6.4 | 11.3 | 0.00 | 3.71 | 0.94 | 93 | 1012.5 |
| 20260505160647 | 11 | 80 | 4.8 | 8.0 | 0.10 | 3.71 | 0.94 | 93 | 1012.5 |
| 20260505160210 | 11 | 74 | 4.8 | 9.7 | 0.10 | 3.71 | 0.94 | 93 | 1012.6 |
| 20260505153200 | 11 | 80 | 4.8 | 9.7 | 0.20 | 3.71 | 0.94 | 93 | 1012.7 |
| 20260505152724 | 11 | 65 | 6.4 | 9.7 | 0.20 | 3.71 | 0.94 | 93 | 1012.7 |
| 20260505152152 | 11 | 71 | 0.0 | 4.8 | 0.20 | 3.71 | 0.94 | 93 | 1012.8 |
| 20260505151701 | 11 | 71 | 1.6 | 4.8 | 0.20 | 3.71 | 0.94 | 93 | 1012.8 |
| 20260505151153 | 11 | 115 | 0.0 | 1.6 | 0.20 | 3.71 | 0.94 | 93 | 1012.8 |
| 20260505150705 | 12 | 115 | 0.0 | 0.0 | 0.20 | 3.61 | 0.91 | 93 | 1012.8 |
| 20260505150203 | 12 | 115 | 0.0 | 0.0 | 0.20 | 3.61 | 0.91 | 93 | 1012.9 |
| 20260505140203 | 12 | 134 | 0.0 | 0.0 | 0.30 | 3.40 | 0.86 | 93 | 1012.9 |
| 20260505130200 | 12 | 137 | 0.0 | 0.0 | 0.00 | 3.10 | 0.79 | 92 | 1013.1 |
| 20260505124653 | 12 | 137 | 0.0 | 4.8 | 0.10 | 3.10 | 0.79 | 93 | 1013.0 |
| 20260505124143 | 12 | 138 | 1.6 | 6.4 | 0.10 | 3.10 | 0.79 | 93 | 1013.1 |
| 20260505123654 | 12 | 152 | 1.6 | 6.4 | 0.10 | 3.10 | 0.79 | 92 | 1013.1 |
| 20260505123156 | 12 | 161 | 0.0 | 0.0 | 0.10 | 3.10 | 0.79 | 92 | 1013.1 |
| 20260505122645 | 12 | 161 | 0.0 | 0.0 | 0.10 | 3.10 | 0.79 | 92 | 1013.1 |
| 20260505122203 | 12 | 161 | 0.0 | 0.0 | 0.10 | 3.10 | 0.79 | 92 | 1013.1 |
| 20260505121655 | 12 | 161 | 0.0 | 0.0 | 0.10 | 3.10 | 0.79 | 92 | 1013.2 |
| 20260505121226 | 12 | 161 | 0.0 | 0.0 | 0.10 | 3.10 | 0.79 | 92 | 1013.2 |
| 20260505120646 | 12 | 161 | 0.0 | 0.0 | 0.10 | 3.10 | 0.79 | 92 | 1013.3 |
| 20260505120155 | 12 | 161 | 0.0 | 0.0 | 0.10 | 3.10 | 0.79 | 92 | 1013.3 |
| 20260505115650 | 12 | 161 | 0.0 | 0.0 | 0.00 | 3.00 | 0.76 | 92 | 1013.3 |
| 20260505115159 | 12 | 161 | 0.0 | 0.0 | 0.00 | 3.00 | 0.76 | 92 | 1013.2 |
| 20260505114648 | 12 | 161 | 0.0 | 0.0 | 0.00 | 3.00 | 0.76 | 92 | 1013.2 |
| 20260505114202 | 12 | 161 | 0.0 | 0.0 | 0.00 | 3.00 | 0.76 | 92 | 1013.3 |
| 20260505113222 | 12 | 161 | 0.0 | 0.0 | 0.00 | 0.00 | 0.76 | 92 | 1013.2 |
| 20260505112740 | 12 | 161 | 0.0 | 0.0 | 0.00 | 0.00 | 0.76 | 92 | 1013.2 |
| 20260505112214 | 12 | 161 | 0.0 | 0.0 | 0.00 | 3.00 | 0.76 | 92 | 1013.2 |
| 20260505111155 | 12 | 161 | 0.0 | 0.0 | 0.00 | 3.00 | 0.76 | 92 | 1013.3 |
| 20260505110651 | 12 | 161 | 0.0 | 0.0 | 0.00 | 3.00 | 0.76 | 92 | 1013.3 |
| 20260505110155 | 12 | 161 | 0.0 | 0.0 | 0.00 | 3.00 | 0.76 | 92 | 1013.3 |
| 20260505102205 | 12 | 161 | 0.0 | 0.0 | 0.00 | 3.00 | 0.76 | 92 | 1013.3 |
| 20260505101721 | 12 | 161 | 0.0 | 0.0 | 0.00 | 3.00 | 0.76 | 92 | 1013.3 |
| 20260505101151 | 12 | 161 | 0.0 | 0.0 | 0.00 | 3.00 | 0.76 | 92 | 1013.3 |
| 20260505100650 | 12 | 161 | 0.0 | 1.6 | 0.00 | 3.00 | 0.76 | 92 | 1013.4 |
| 20260505100151 | 12 | 161 | 0.0 | 1.6 | 0.00 | 3.00 | 0.76 | 92 | 1013.4 |
| 20260505095706 | 12 | 161 | 0.0 | 3.2 | 0.00 | 3.00 | 0.76 | 92 | 1013.3 |
| 20260505095157 | 12 | 161 | 1.6 | 4.8 | 0.00 | 3.00 | 0.76 | 92 | 1013.2 |
| 20260505094716 | 12 | 161 | 1.6 | 4.8 | 0.00 | 3.00 | 0.76 | 92 | 1013.2 |
| 20260505094156 | 12 | 136 | 0.0 | 0.0 | 0.10 | 3.00 | 0.76 | 92 | 1013.3 |
| 20260505093652 | 12 | 135 | 0.0 | 0.0 | 0.10 | 3.00 | 0.76 | 92 | 1013.2 |
| 20260505093202 | 12 | 129 | 0.0 | 0.0 | 0.20 | 3.00 | 0.76 | 92 | 1013.2 |
| 20260505092658 | 12 | 129 | 0.0 | 0.0 | 0.30 | 3.00 | 0.76 | 92 | 1013.2 |
| 20260505092224 | 12 | 129 | 0.0 | 0.0 | 0.41 | 3.00 | 0.76 | 92 | 1013.2 |
| 20260505091703 | 12 | 129 | 0.0 | 0.0 | 0.41 | 3.00 | 0.76 | 92 | 1013.1 |
| 20260505091152 | 12 | 129 | 0.0 | 0.0 | 0.51 | 3.00 | 0.76 | 92 | 1013.1 |
| 20260505090645 | 11 | 129 | 0.0 | 0.0 | 0.61 | 3.00 | 0.76 | 91 | 1013.1 |
| 20260505090207 | 11 | 129 | 0.0 | 0.0 | 0.79 | 3.00 | 0.76 | 91 | 1013.1 |
| 20260505085701 | 11 | 129 | 0.0 | 0.0 | 0.99 | 3.00 | 0.76 | 91 | 1013.1 |
| 20260505085159 | 11 | 129 | 0.0 | 1.6 | 1.19 | 3.00 | 0.76 | 91 | 1013.1 |
| 20260505084657 | 11 | 129 | 0.0 | 1.6 | 1.40 | 3.00 | 0.76 | 91 | 1013.0 |
| 20260505084152 | 11 | 129 | 0.0 | 0.0 | 1.50 | 2.90 | 0.74 | 91 | 1013.0 |
| 20260505083652 | 11 | 129 | 0.0 | 0.0 | 1.80 | 2.90 | 0.74 | 91 | 1013.1 |
| 20260505083146 | 11 | 129 | 0.0 | 0.0 | 2.01 | 2.79 | 0.71 | 91 | 1013.1 |
| 20260505082700 | 11 | 129 | 0.0 | 0.0 | 2.11 | 2.69 | 0.69 | 90 | 1013.1 |
| 20260505082203 | 11 | 129 | 0.0 | 0.0 | 2.01 | 2.59 | 0.66 | 90 | 1013.1 |
| 20260505081716 | 11 | 129 | 0.0 | 1.6 | 2.21 | 2.59 | 0.66 | 90 | 1013.1 |
| 20260505081153 | 11 | 129 | 0.0 | 8.0 | 2.21 | 2.49 | 0.64 | 89 | 1013.1 |
| 20260505080652 | 11 | 129 | 1.6 | 11.3 | 2.21 | 2.39 | 0.61 | 89 | 1013.1 |
| 20260505080205 | 11 | 124 | 8.0 | 11.3 | 2.11 | 2.21 | 0.56 | 88 | 1013.1 |
| 20260505075701 | 11 | 94 | 3.2 | 11.3 | 1.91 | 2.01 | 0.51 | 87 | 1013.0 |
| 20260505075159 | 11 | 93 | 4.8 | 11.3 | 1.80 | 1.80 | 0.46 | 87 | 1013.2 |
| 20260505074717 | 11 | 36 | 0.0 | 0.0 | 1.60 | 1.60 | 0.41 | 87 | 1013.2 |
| 20260505074158 | 11 | 34 | 0.0 | 6.4 | 1.40 | 1.40 | 0.36 | 87 | 1013.2 |
| 20260505073702 | 12 | 34 | 1.6 | 6.4 | 1.09 | 1.09 | 0.28 | 86 | 1013.2 |
| 20260505073155 | 12 | 349 | 0.0 | 6.4 | 0.79 | 0.79 | 0.20 | 86 | 1013.3 |
| 20260505072653 | 12 | 310 | 1.6 | 6.4 | 0.61 | 0.61 | 0.15 | 85 | 1013.4 |
| 20260505072150 | 12 | 294 | 3.2 | 4.8 | 0.51 | 0.51 | 0.15 | 85 | 1013.4 |
| 20260505071703 | 12 | 340 | 1.6 | 6.4 | 0.41 | 0.41 | 0.10 | 85 | 1013.4 |
| 20260505071134 | 12 | 340 | 1.6 | 8.0 | 0.20 | 0.20 | 0.05 | 85 | 1013.3 |
| 20260505070204 | 12 | 342 | 4.8 | 8.0 | 0.20 | 0.20 | 0.05 | 83 | 1013.3 |
| 20260505065656 | 12 | 350 | 6.4 | 8.0 | 0.10 | 0.10 | 0.03 | 81 | 1013.2 |
| 20260505065150 | 12 | 355 | 4.8 | 6.4 | 0.10 | 0.10 | 0.03 | 79 | 1013.1 |
| 20260505064709 | 12 | 5 | 0.0 | 6.4 | 0.00 | 0.00 | 0.00 | 78 | 1013.1 |
| 20260505064208 | 12 | 5 | 0.0 | 6.4 | 0.00 | 0.00 | 0.00 | 76 | 1013.0 |
| 20260505063722 | 13 | 5 | 1.6 | 6.4 | 0.00 | 0.00 | 0.00 | 74 | 1012.9 |
| 20260505063224 | 13 | 5 | 0.0 | 0.0 | 0.00 | 0.00 | 0.00 | 74 | 1012.9 |
| 20260505062658 | 13 | 5 | 0.0 | 0.0 | 0.00 | 0.00 | 0.00 | 75 | 1012.9 |
| 20260505062151 | 13 | 5 | 0.0 | 1.6 | 0.00 | 0.00 | 0.00 | 75 | 1012.8 |
| 20260505061701 | 13 | 360 | 0.0 | 6.4 | 0.00 | 0.00 | 0.00 | 76 | 1012.8 |
| 20260505061152 | 13 | 360 | 1.6 | 4.8 | 0.00 | 0.00 | 0.00 | 77 | 1012.8 |
| 20260505060646 | 13 | 360 | 0.0 | 0.0 | 0.00 | 0.00 | 0.00 | 78 | 1012.8 |
| 20260505060150 | 13 | 360 | 0.0 | 0.0 | 0.00 | 0.00 | 0.00 | 77 | 1012.7 |
| 20260505055703 | 13 | 360 | 0.0 | 0.0 | 0.00 | 0.00 | 0.00 | 77 | 1012.7 |
| 20260505055200 | 13 | 360 | 0.0 | 0.0 | 0.00 | 0.00 | 0.00 | 77 | 1012.7 |
| 20260505054714 | 13 | 360 | 0.0 | 0.0 | 0.00 | 0.00 | 0.00 | 77 | 1012.6 |
| 20260505054156 | 13 | 360 | 0.0 | 0.0 | 0.00 | 0.00 | 0.00 | 76 | 1012.5 |
| 20260505053711 | 13 | 360 | 0.0 | 0.0 | 0.00 | 0.00 | 0.00 | 76 | 1012.4 |
| 20260505053152 | 13 | 360 | 0.0 | 0.0 | 0.00 | 0.00 | 0.00 | 76 | 1012.4 |
| 20260505052703 | 13 | 360 | 0.0 | 0.0 | 0.00 | 0.00 | 0.00 | 76 | 1012.4 |
| 20260505052205 | 13 | 360 | 0.0 | 0.0 | 0.00 | 0.00 | 0.00 | 76 | 1012.4 |
| 20260505051644 | 13 | 360 | 0.0 | 0.0 | 0.00 | 0.00 | 0.00 | 76 | 1012.4 |
| 20260505051204 | 13 | 360 | 0.0 | 0.0 | 0.00 | 0.00 | 0.00 | 75 | 1012.4 |
| 20260505050653 | 13 | 360 | 0.0 | 0.0 | 0.00 | 0.00 | 0.00 | 75 | 1012.4 |
| 20260505050157 | 13 | 360 | 0.0 | 0.0 | 0.00 | 0.00 | 0.00 | 75 | 1012.5 |
| 20260505041657 | 13 | 324 | 0.0 | 0.0 | 0.00 | 0.00 | 0.00 | 74 | 1012.3 |
| 20260505041208 | 13 | 324 | 0.0 | 0.0 | 0.00 | 0.00 | 0.00 | 74 | 1012.3 |
| 20260505040644 | 13 | 324 | 0.0 | 0.0 | 0.00 | 0.00 | 0.00 | 74 | 1012.3 |
| 20260505040151 | 13 | 324 | 0.0 | 3.2 | 0.00 | 0.00 | 0.00 | 73 | 1012.2 |
| 20260505035701 | 13 | 324 | 0.0 | 3.2 | 0.00 | 0.00 | 0.00 | 72 | 1012.1 |
| 20260505035154 | 13 | 324 | 0.0 | 4.8 | 0.00 | 0.00 | 0.00 | 71 | 1012.1 |
| 20260505034651 | 13 | 324 | 1.6 | 4.8 | 0.00 | 0.00 | 0.00 | 71 | 1012.1 |
| 20260505034148 | 13 | 324 | 1.6 | 4.8 | 0.00 | 0.00 | 0.00 | 70 | 1012.2 |
| 20260505033701 | 13 | 324 | 1.6 | 6.4 | 0.00 | 0.00 | 0.00 | 70 | 1012.2 |
| 20260505033223 | 13 | 324 | 1.6 | 6.4 | 0.00 | 0.00 | 0.00 | 69 | 1012.2 |
| 20260505032700 | 13 | 346 | 3.2 | 4.8 | 0.00 | 0.00 | 0.00 | 69 | 1012.2 |
| 20260505032223 | 13 | 346 | 0.0 | 0.0 | 0.00 | 0.00 | 0.00 | 68 | 1012.1 |
| 20260505031702 | 13 | 346 | 0.0 | 3.2 | 0.00 | 0.00 | 0.00 | 68 | 1012.1 |
| 20260505031200 | 13 | 346 | 0.0 | 6.4 | 0.00 | 0.00 | 0.00 | 68 | 1012.2 |
| 20260505030653 | 13 | 346 | 4.8 | 6.4 | 0.00 | 0.00 | 0.00 | 68 | 1012.3 |
| 20260505030146 | 13 | 346 | 0.0 | 0.0 | 0.00 | 0.00 | 0.00 | 68 | 1012.4 |
| 20260505025700 | 13 | 346 | 0.0 | 0.0 | 0.00 | 0.00 | 0.00 | 69 | 1012.4 |
| 20260505025158 | 13 | 346 | 0.0 | 0.0 | 0.00 | 0.00 | 0.00 | 68 | 1012.5 |
| 20260505024719 | 14 | 346 | 0.0 | 0.0 | 0.00 | 0.00 | 0.00 | 68 | 1012.6 |
| 20260505024155 | 14 | 346 | 0.0 | 0.0 | 0.00 | 0.00 | 0.00 | 67 | 1012.7 |
| 20260505023651 | 14 | 346 | 0.0 | 0.0 | 0.00 | 0.00 | 0.00 | 67 | 1012.8 |
| 20260505023158 | 14 | 346 | 0.0 | 0.0 | 0.00 | 0.00 | 0.00 | 67 | 1012.8 |
| 20260505022702 | 14 | 346 | 0.0 | 0.0 | 0.00 | 0.00 | 0.00 | 66 | 1012.9 |
| 20260505022155 | 14 | 346 | 0.0 | 4.8 | 0.00 | 0.00 | 0.00 | 66 | 1012.9 |
| 20260505021651 | 14 | 346 | 1.6 | 6.4 | 0.00 | 0.00 | 0.00 | 66 | 1013.1 |
| 20260505021152 | 14 | 346 | 1.6 | 6.4 | 0.00 | 0.00 | 0.00 | 65 | 1013.2 |
| 20260505020652 | 14 | 346 | 0.0 | 8.0 | 0.00 | 0.00 | 0.00 | 65 | 1013.4 |
| 20260505020152 | 14 | 346 | 4.8 | 8.0 | 0.00 | 0.00 | 0.00 | 64 | 1013.4 |
| 20260505015650 | 14 | 346 | 4.8 | 6.4 | 0.00 | 0.00 | 0.00 | 64 | 1013.4 |
| 20260505015146 | 14 | 355 | 3.2 | 6.4 | 0.00 | 0.00 | 0.00 | 65 | 1013.4 |
| 20260505014727 | 14 | 355 | 0.0 | 4.8 | 0.00 | 0.00 | 0.00 | 65 | 1013.5 |